F E Warren AFB, Wyoming
Current Conditions -  °F | °C
As of 2:53 PM on Tuesday 21 Oct 2014 (Local Time) from KCYS Reporting Station
Broken Clouds Broken Clouds  
Wind Chill: 70°   Ceiling: 12000
Heat Index: 70°   Visibility: 10mi
Dew Point: 34°   Wind: 12mph
Humidity: 27%   Direction: 200°SSW
Pressure: 29.96"   Gusts: NA
Location:  41.13°N, 104.82°W
Report Text: KCYS 212053Z 20010KT 10SM BKN120 21/01 A2996 RMK AO2 SLP084 T02110011 56017
Loading
Personal Weather Stations






























Interactive Weather Map New forecast layout! Learn more

10-Day Weather Forecast

Advertisements
Track Severe Weather on mobile